sensor_id;sensor_type;location;lat;lon;timestamp;pressure;altitude;pressure_sealevel;temperature;humidity
69245;BME280;56357;52.304;4.870;2022-12-08T00:01:13;101279.72;;;16.06;53.93
69245;BME280;56357;52.304;4.870;2022-12-08T00:03:41;101276.69;;;16.08;54.04
69245;BME280;56357;52.304;4.870;2022-12-08T00:11:52;101259.50;;;15.99;53.94
69245;BME280;56357;52.304;4.870;2022-12-08T00:14:23;101263.41;;;15.98;53.81
69245;BME280;56357;52.304;4.870;2022-12-08T00:16:49;101265.09;;;15.99;54.43
69245;BME280;56357;52.304;4.870;2022-12-08T00:19:16;101258.41;;;16.00;53.88
69245;BME280;56357;52.304;4.870;2022-12-08T00:21:42;101246.84;;;15.92;53.86
69245;BME280;56357;52.304;4.870;2022-12-08T00:24:09;101244.31;;;15.90;54.11
69245;BME280;56357;52.304;4.870;2022-12-08T00:26:36;101242.09;;;15.92;54.04
69245;BME280;56357;52.304;4.870;2022-12-08T00:29:03;101246.56;;;15.93;53.97
69245;BME280;56357;52.304;4.870;2022-12-08T00:31:29;101239.31;;;15.92;53.96
69245;BME280;56357;52.304;4.870;2022-12-08T00:33:56;101230.34;;;15.90;53.91
69245;BME280;56357;52.304;4.870;2022-12-08T00:36:23;101219.41;;;15.89;53.75
69245;BME280;56357;52.304;4.870;2022-12-08T00:38:50;101215.19;;;15.86;53.95
69245;BME280;56357;52.304;4.870;2022-12-08T00:41:21;101208.75;;;15.86;53.85
69245;BME280;56357;52.304;4.870;2022-12-08T00:44:10;101226.38;;;15.86;53.81
69245;BME280;56357;52.304;4.870;2022-12-08T00:46:37;101216.53;;;15.84;54.10
69245;BME280;56357;52.304;4.870;2022-12-08T00:49:04;101211.28;;;15.87;53.75
69245;BME280;56357;52.304;4.870;2022-12-08T00:51:31;101211.22;;;15.82;53.82
69245;BME280;56357;52.304;4.870;2022-12-08T00:53:58;101205.38;;;15.84;53.69
69245;BME280;56357;52.304;4.870;2022-12-08T00:56:24;101201.72;;;15.83;53.82
69245;BME280;56357;52.304;4.870;2022-12-08T00:58:51;101197.25;;;15.82;53.77
69245;BME280;56357;52.304;4.870;2022-12-08T01:01:18;101196.16;;;15.83;53.87
69245;BME280;56357;52.304;4.870;2022-12-08T01:03:44;101200.31;;;15.81;54.03
69245;BME280;56357;52.304;4.870;2022-12-08T01:06:11;101197.16;;;15.77;53.71
69245;BME280;56357;52.304;4.870;2022-12-08T01:08:38;101195.50;;;15.76;53.56
69245;BME280;56357;52.304;4.870;2022-12-08T01:11:06;101191.03;;;15.75;53.81
69245;BME280;56357;52.304;4.870;2022-12-08T01:13:33;101185.44;;;15.75;53.67
69245;BME280;56357;52.304;4.870;2022-12-08T01:15:59;101188.72;;;15.72;54.01
69245;BME280;56357;52.304;4.870;2022-12-08T01:18:26;101194.56;;;15.71;53.53
69245;BME280;56357;52.304;4.870;2022-12-08T01:20:53;101193.72;;;15.70;53.54
69245;BME280;56357;52.304;4.870;2022-12-08T01:23:20;101179.69;;;15.65;54.16
69245;BME280;56357;52.304;4.870;2022-12-08T01:25:46;101184.97;;;15.62;53.76
69245;BME280;56357;52.304;4.870;2022-12-08T01:28:13;101189.41;;;15.63;53.89
69245;BME280;56357;52.304;4.870;2022-12-08T01:30:39;101194.16;;;15.62;53.79
69245;BME280;56357;52.304;4.870;2022-12-08T01:33:06;101177.66;;;15.61;54.07
69245;BME280;56357;52.304;4.870;2022-12-08T01:35:33;101180.72;;;15.59;53.90
69245;BME280;56357;52.304;4.870;2022-12-08T01:37:59;101186.31;;;15.59;53.58
69245;BME280;56357;52.304;4.870;2022-12-08T01:40:26;101181.56;;;15.60;53.86
69245;BME280;56357;52.304;4.870;2022-12-08T01:42:52;101192.47;;;15.61;53.63
69245;BME280;56357;52.304;4.870;2022-12-08T01:45:25;101191.28;;;15.57;53.71
69245;BME280;56357;52.304;4.870;2022-12-08T01:48:02;101185.13;;;15.55;53.81
69245;BME280;56357;52.304;4.870;2022-12-08T01:50:31;101180.66;;;15.54;54.15
69245;BME280;56357;52.304;4.870;2022-12-08T01:53:01;101173.97;;;15.55;53.72
69245;BME280;56357;52.304;4.870;2022-12-08T01:55:38;101173.44;;;15.58;53.70
69245;BME280;56357;52.304;4.870;2022-12-08T01:58:20;101169.72;;;15.52;53.85
69245;BME280;56357;52.304;4.870;2022-12-08T02:00:48;101163.06;;;15.53;53.39
69245;BME280;56357;52.304;4.870;2022-12-08T02:03:19;101159.69;;;15.51;53.90
69245;BME280;56357;52.304;4.870;2022-12-08T02:05:47;101171.69;;;15.52;53.58
69245;BME280;56357;52.304;4.870;2022-12-08T02:08:14;101159.94;;;15.50;53.84
69245;BME280;56357;52.304;4.870;2022-12-08T02:10:41;101162.13;;;15.48;53.78
69245;BME280;56357;52.304;4.870;2022-12-08T02:13:13;101158.75;;;15.46;53.81
69245;BME280;56357;52.304;4.870;2022-12-08T02:21:18;101144.66;;;15.41;53.77
69245;BME280;56357;52.304;4.870;2022-12-08T02:35:02;101170.19;;;15.44;53.45
69245;BME280;56357;52.304;4.870;2022-12-08T02:37:38;101139.63;;;15.38;53.83
69245;BME280;56357;52.304;4.870;2022-12-08T02:45:33;101128.44;;;15.38;53.62
69245;BME280;56357;52.304;4.870;2022-12-08T02:48:02;101127.28;;;15.34;53.73
69245;BME280;56357;52.304;4.870;2022-12-08T02:50:28;101130.66;;;15.36;53.65
69245;BME280;56357;52.304;4.870;2022-12-08T02:52:54;101139.28;;;15.34;53.64
69245;BME280;56357;52.304;4.870;2022-12-08T03:03:48;101103.28;;;15.33;53.85
69245;BME280;56357;52.304;4.870;2022-12-08T03:09:45;101107.66;;;15.29;53.91
69245;BME280;56357;52.304;4.870;2022-12-08T03:12:25;101105.47;;;15.31;53.75
69245;BME280;56357;52.304;4.870;2022-12-08T03:14:56;101105.53;;;15.36;53.63
69245;BME280;56357;52.304;4.870;2022-12-08T03:17:27;101100.97;;;15.30;53.77
69245;BME280;56357;52.304;4.870;2022-12-08T03:19:56;101103.75;;;15.30;53.78
69245;BME280;56357;52.304;4.870;2022-12-08T03:22:26;101102.91;;;15.29;54.24
69245;BME280;56357;52.304;4.870;2022-12-08T03:24:54;101092.00;;;15.28;54.18
69245;BME280;56357;52.304;4.870;2022-12-08T03:27:28;101084.22;;;15.30;53.89
69245;BME280;56357;52.304;4.870;2022-12-08T03:29:58;101084.81;;;15.32;53.98
69245;BME280;56357;52.304;4.870;2022-12-08T03:34:57;101076.72;;;15.30;54.02
69245;BME280;56357;52.304;4.870;2022-12-08T03:37:26;101079.84;;;15.34;53.86
69245;BME280;56357;52.304;4.870;2022-12-08T03:39:53;101079.84;;;15.34;54.21
69245;BME280;56357;52.304;4.870;2022-12-08T03:42:20;101076.44;;;15.32;54.17
69245;BME280;56357;52.304;4.870;2022-12-08T03:44:47;101068.94;;;15.32;53.85
69245;BME280;56357;52.304;4.870;2022-12-08T03:47:13;101060.56;;;15.32;53.71
69245;BME280;56357;52.304;4.870;2022-12-08T03:49:39;101053.38;;;15.36;54.15
69245;BME280;56357;52.304;4.870;2022-12-08T03:52:06;101046.88;;;15.31;54.37
69245;BME280;56357;52.304;4.870;2022-12-08T03:54:32;101051.66;;;15.35;54.11
69245;BME280;56357;52.304;4.870;2022-12-08T03:56:58;101066.19;;;15.37;54.54
69245;BME280;56357;52.304;4.870;2022-12-08T03:59:25;101063.94;;;15.34;54.11
69245;BME280;56357;52.304;4.870;2022-12-08T04:01:51;101063.34;;;15.32;54.13
69245;BME280;56357;52.304;4.870;2022-12-08T04:04:18;101070.94;;;15.37;54.27
69245;BME280;56357;52.304;4.870;2022-12-08T04:06:44;101072.63;;;15.38;54.30
69245;BME280;56357;52.304;4.870;2022-12-08T04:09:11;101066.47;;;15.36;53.87
69245;BME280;56357;52.304;4.870;2022-12-08T04:11:37;101069.31;;;15.41;54.51
69245;BME280;56357;52.304;4.870;2022-12-08T04:14:04;101068.28;;;15.42;53.87
69245;BME280;56357;52.304;4.870;2022-12-08T04:16:30;101071.78;;;15.37;54.14
69245;BME280;56357;52.304;4.870;2022-12-08T04:18:57;101059.28;;;15.40;54.08
69245;BME280;56357;52.304;4.870;2022-12-08T04:21:23;101058.16;;;15.41;54.26
69245;BME280;56357;52.304;4.870;2022-12-08T04:23:50;101048.72;;;15.42;53.66
69245;BME280;56357;52.304;4.870;2022-12-08T04:26:16;101035.78;;;15.36;54.36
69245;BME280;56357;52.304;4.870;2022-12-08T04:28:43;101041.94;;;15.38;54.01
69245;BME280;56357;52.304;4.870;2022-12-08T04:31:09;101050.66;;;15.41;54.42
69245;BME280;56357;52.304;4.870;2022-12-08T04:33:35;101061.47;;;15.38;54.43
69245;BME280;56357;52.304;4.870;2022-12-08T04:36:03;101063.16;;;15.39;54.53
69245;BME280;56357;52.304;4.870;2022-12-08T04:38:31;101063.16;;;15.39;54.42
69245;BME280;56357;52.304;4.870;2022-12-08T04:40:57;101066.31;;;15.42;54.59
69245;BME280;56357;52.304;4.870;2022-12-08T04:43:24;101059.28;;;15.40;54.56
69245;BME280;56357;52.304;4.870;2022-12-08T04:45:50;101055.97;;;15.43;54.55
69245;BME280;56357;52.304;4.870;2022-12-08T04:48:17;101055.38;;;15.41;54.68
69245;BME280;56357;52.304;4.870;2022-12-08T04:50:44;101057.09;;;15.42;54.27
69245;BME280;56357;52.304;4.870;2022-12-08T04:53:11;101062.69;;;15.42;54.71
69245;BME280;56357;52.304;4.870;2022-12-08T04:55:39;101054.09;;;15.48;54.43
69245;BME280;56357;52.304;4.870;2022-12-08T04:58:11;101055.50;;;15.46;54.11
69245;BME280;56357;52.304;4.870;2022-12-08T05:00:38;101054.63;;;15.45;54.60
69245;BME280;56357;52.304;4.870;2022-12-08T05:03:04;101055.22;;;15.47;54.67
69245;BME280;56357;52.304;4.870;2022-12-08T05:05:31;101046.25;;;15.45;54.59
69245;BME280;56357;52.304;4.870;2022-12-08T05:07:57;101048.78;;;15.47;54.67
69245;BME280;56357;52.304;4.870;2022-12-08T05:10:24;101036.22;;;15.44;54.55
69245;BME280;56357;52.304;4.870;2022-12-08T05:12:50;101029.25;;;15.47;54.65
69245;BME280;56357;52.304;4.870;2022-12-08T05:15:16;101025.28;;;15.43;54.88
69245;BME280;56357;52.304;4.870;2022-12-08T05:17:43;101031.78;;;15.48;55.09
69245;BME280;56357;52.304;4.870;2022-12-08T05:20:10;101022.31;;;15.49;54.55
69245;BME280;56357;52.304;4.870;2022-12-08T05:22:36;101028.16;;;15.48;54.72
69245;BME280;56357;52.304;4.870;2022-12-08T05:25:03;101029.34;;;15.52;54.66
69245;BME280;56357;52.304;4.870;2022-12-08T05:27:29;101037.34;;;15.48;54.63
69245;BME280;56357;52.304;4.870;2022-12-08T05:29:55;101037.13;;;15.50;54.36
69245;BME280;56357;52.304;4.870;2022-12-08T05:32:22;101046.66;;;15.54;54.47
69245;BME280;56357;52.304;4.870;2022-12-08T05:34:48;101047.22;;;15.56;54.48
69245;BME280;56357;52.304;4.870;2022-12-08T05:37:15;101051.72;;;15.57;54.89
69245;BME280;56357;52.304;4.870;2022-12-08T05:39:42;101050.09;;;15.61;54.65
69245;BME280;56357;52.304;4.870;2022-12-08T05:42:08;101043.63;;;15.55;55.12
69245;BME280;56357;52.304;4.870;2022-12-08T05:44:35;101035.81;;;15.57;54.64
69245;BME280;56357;52.304;4.870;2022-12-08T05:47:01;101036.19;;;15.66;54.51
69245;BME280;56357;52.304;4.870;2022-12-08T05:49:28;101023.66;;;15.69;54.29
69245;BME280;56357;52.304;4.870;2022-12-08T05:51:54;101007.97;;;15.63;54.98
69245;BME280;56357;52.304;4.870;2022-12-08T05:54:20;101007.69;;;15.64;54.59
69245;BME280;56357;52.304;4.870;2022-12-08T05:56:48;101010.75;;;15.63;54.44
69245;BME280;56357;52.304;4.870;2022-12-08T05:59:14;101013.28;;;15.64;54.65
69245;BME280;56357;52.304;4.870;2022-12-08T06:01:41;101014.41;;;15.63;54.53
69245;BME280;56357;52.304;4.870;2022-12-08T06:04:07;101010.47;;;15.64;54.72
69245;BME280;56357;52.304;4.870;2022-12-08T06:06:34;101008.34;;;15.71;54.87
69245;BME280;56357;52.304;4.870;2022-12-08T06:09:03;101004.72;;;15.71;54.39
69245;BME280;56357;52.304;4.870;2022-12-08T06:11:30;101013.66;;;15.73;54.72
69245;BME280;56357;52.304;4.870;2022-12-08T06:13:58;101009.44;;;15.70;54.73
69245;BME280;56357;52.304;4.870;2022-12-08T06:16:26;100997.19;;;15.71;54.77
69245;BME280;56357;52.304;4.870;2022-12-08T06:18:53;100999.25;;;15.81;54.41
69245;BME280;56357;52.304;4.870;2022-12-08T06:21:20;101001.78;;;15.82;54.92
69245;BME280;56357;52.304;4.870;2022-12-08T06:23:52;100999.97;;;15.71;55.27
69245;BME280;56357;52.304;4.870;2022-12-08T06:26:19;100995.22;;;15.72;55.49
69245;BME280;56357;52.304;4.870;2022-12-08T06:28:47;100998.91;;;15.77;55.22
69245;BME280;56357;52.304;4.870;2022-12-08T06:31:16;100995.03;;;15.78;55.31
69245;BME280;56357;52.304;4.870;2022-12-08T06:33:43;100993.84;;;15.74;55.48
69245;BME280;56357;52.304;4.870;2022-12-08T06:36:12;100995.34;;;15.82;55.07
69245;BME280;56357;52.304;4.870;2022-12-08T06:38:39;101002.03;;;15.81;55.10
69245;BME280;56357;52.304;4.870;2022-12-08T06:41:05;100992.22;;;15.78;55.10
69245;BME280;56357;52.304;4.870;2022-12-08T06:43:32;101003.78;;;15.87;54.89
69245;BME280;56357;52.304;4.870;2022-12-08T06:45:59;101007.69;;;15.86;55.01
69245;BME280;56357;52.304;4.870;2022-12-08T06:48:26;101004.56;;;15.82;55.62
69245;BME280;56357;52.304;4.870;2022-12-08T06:50:53;101001.81;;;15.87;55.37
69245;BME280;56357;52.304;4.870;2022-12-08T06:53:19;101007.25;;;15.99;55.36
69245;BME280;56357;52.304;4.870;2022-12-08T06:55:51;101015.91;;;15.97;55.05
69245;BME280;56357;52.304;4.870;2022-12-08T06:58:18;101008.00;;;15.89;54.70
69245;BME280;56357;52.304;4.870;2022-12-08T07:00:45;101007.13;;;15.89;55.30
69245;BME280;56357;52.304;4.870;2022-12-08T07:03:12;101007.47;;;15.92;55.24
69245;BME280;56357;52.304;4.870;2022-12-08T07:05:39;101012.41;;;15.85;55.28
69245;BME280;56357;52.304;4.870;2022-12-08T07:08:06;101014.03;;;15.81;55.35
69245;BME280;56357;52.304;4.870;2022-12-08T07:10:33;101021.06;;;15.84;54.93
69245;BME280;56357;52.304;4.870;2022-12-08T07:13:00;101024.13;;;15.82;54.93
69245;BME280;56357;52.304;4.870;2022-12-08T07:15:26;101018.22;;;15.79;55.00
69245;BME280;56357;52.304;4.870;2022-12-08T07:17:53;101020.19;;;15.83;55.73
69245;BME280;56357;52.304;4.870;2022-12-08T07:20:19;101027.94;;;15.76;56.42
69245;BME280;56357;52.304;4.870;2022-12-08T07:22:48;101021.38;;;15.87;55.78
69245;BME280;56357;52.304;4.870;2022-12-08T07:25:15;101023.91;;;15.89;55.69
69245;BME280;56357;52.304;4.870;2022-12-08T07:27:42;101027.38;;;15.74;56.10
69245;BME280;56357;52.304;4.870;2022-12-08T07:30:09;101024.69;;;15.84;55.64
69245;BME280;56357;52.304;4.870;2022-12-08T07:32:36;101036.38;;;15.81;55.99
69245;BME280;56357;52.304;4.870;2022-12-08T07:35:04;101037.31;;;15.87;56.13
69245;BME280;56357;52.304;4.870;2022-12-08T07:37:32;101031.19;;;15.90;55.75
69245;BME280;56357;52.304;4.870;2022-12-08T07:39:59;101033.66;;;15.86;56.21
69245;BME280;56357;52.304;4.870;2022-12-08T07:42:25;101028.66;;;15.88;55.62
69245;BME280;56357;52.304;4.870;2022-12-08T07:44:51;101030.34;;;15.89;55.82
69245;BME280;56357;52.304;4.870;2022-12-08T07:47:18;101028.59;;;15.83;55.42
69245;BME280;56357;52.304;4.870;2022-12-08T07:49:44;101023.34;;;15.87;56.03
69245;BME280;56357;52.304;4.870;2022-12-08T07:52:11;101020.16;;;15.78;55.87
69245;BME280;56357;52.304;4.870;2022-12-08T07:54:37;101024.13;;;15.82;56.01
69245;BME280;56357;52.304;4.870;2022-12-08T07:57:04;101017.75;;;15.87;55.79
69245;BME280;56357;52.304;4.870;2022-12-08T07:59:30;101013.84;;;15.88;55.86
69245;BME280;56357;52.304;4.870;2022-12-08T08:01:57;101010.75;;;15.84;55.62
69245;BME280;56357;52.304;4.870;2022-12-08T08:04:23;101015.75;;;15.82;55.83
69245;BME280;56357;52.304;4.870;2022-12-08T08:06:49;101008.00;;;15.89;55.56
69245;BME280;56357;52.304;4.870;2022-12-08T08:09:16;101005.72;;;15.86;55.78
69245;BME280;56357;52.304;4.870;2022-12-08T08:11:42;101006.00;;;15.85;55.76
69245;BME280;56357;52.304;4.870;2022-12-08T08:14:09;101019.13;;;15.84;55.14
69245;BME280;56357;52.304;4.870;2022-12-08T08:16:35;101024.69;;;15.84;55.45
69245;BME280;56357;52.304;4.870;2022-12-08T08:19:02;101013.31;;;15.91;55.29
69245;BME280;56357;52.304;4.870;2022-12-08T08:21:28;101022.19;;;15.83;55.36
69245;BME280;56357;52.304;4.870;2022-12-08T08:23:54;101024.63;;;15.79;55.62
69245;BME280;56357;52.304;4.870;2022-12-08T08:26:21;101024.88;;;15.78;55.68
69245;BME280;56357;52.304;4.870;2022-12-08T08:28:47;101039.75;;;15.83;55.29
69245;BME280;56357;52.304;4.870;2022-12-08T08:31:14;101043.28;;;15.74;55.76
69245;BME280;56357;52.304;4.870;2022-12-08T08:33:40;101030.56;;;15.83;55.31
69245;BME280;56357;52.304;4.870;2022-12-08T08:36:07;101029.63;;;15.77;55.43
69245;BME280;56357;52.304;4.870;2022-12-08T08:38:35;101036.31;;;15.76;55.73
69245;BME280;56357;52.304;4.870;2022-12-08T08:41:10;101026.84;;;15.77;55.18
69245;BME280;56357;52.304;4.870;2022-12-08T08:43:36;101017.50;;;15.67;55.89
69245;BME280;56357;52.304;4.870;2022-12-08T08:46:04;101027.94;;;15.76;55.69
69245;BME280;56357;52.304;4.870;2022-12-08T08:48:31;101024.63;;;15.79;55.22
69245;BME280;56357;52.304;4.870;2022-12-08T08:50:57;101028.72;;;15.72;55.51
69245;BME280;56357;52.304;4.870;2022-12-08T08:53:24;101020.63;;;15.70;55.41
69245;BME280;56357;52.304;4.870;2022-12-08T08:55:51;101030.63;;;15.66;55.64
69245;BME280;56357;52.304;4.870;2022-12-08T08:58:17;101035.44;;;15.71;55.05
69245;BME280;56357;52.304;4.870;2022-12-08T09:00:43;101040.44;;;15.69;55.14
69245;BME280;56357;52.304;4.870;2022-12-08T09:03:10;101038.94;;;15.61;55.48
69245;BME280;56357;52.304;4.870;2022-12-08T09:05:37;101051.28;;;15.65;55.24
69245;BME280;56357;52.304;4.870;2022-12-08T09:08:05;101047.44;;;15.71;55.41
69245;BME280;56357;52.304;4.870;2022-12-08T09:10:31;101058.47;;;15.61;55.30
69245;BME280;56357;52.304;4.870;2022-12-08T09:12:58;101064.66;;;15.63;55.12
69245;BME280;56357;52.304;4.870;2022-12-08T09:15:24;101061.84;;;15.63;55.11
69245;BME280;56357;52.304;4.870;2022-12-08T09:17:50;101049.56;;;15.64;55.35
69245;BME280;56357;52.304;4.870;2022-12-08T09:20:17;101054.50;;;15.57;55.13
69245;BME280;56357;52.304;4.870;2022-12-08T09:22:43;101048.94;;;15.57;55.45
69245;BME280;56357;52.304;4.870;2022-12-08T09:25:10;101048.34;;;15.55;55.35
69245;BME280;56357;52.304;4.870;2022-12-08T09:27:36;101048.59;;;15.53;55.44
69245;BME280;56357;52.304;4.870;2022-12-08T09:30:03;101056.19;;;15.58;55.29
69245;BME280;56357;52.304;4.870;2022-12-08T09:32:30;101038.28;;;15.54;55.64
69245;BME280;56357;52.304;4.870;2022-12-08T09:34:56;101046.66;;;15.54;55.58
69245;BME280;56357;52.304;4.870;2022-12-08T09:37:22;101041.19;;;15.64;55.24
69245;BME280;56357;52.304;4.870;2022-12-08T09:39:49;101045.81;;;15.53;55.38
69245;BME280;56357;52.304;4.870;2022-12-08T09:42:26;101043.19;;;15.47;55.54
69245;BME280;56357;52.304;4.870;2022-12-08T09:45:10;101029.84;;;15.49;55.60
69245;BME280;56357;52.304;4.870;2022-12-08T09:48:34;101042.19;;;15.53;55.17
69245;BME280;56357;52.304;4.870;2022-12-08T09:50:57;101036.22;;;15.44;55.38
69245;BME280;56357;52.304;4.870;2022-12-08T09:53:41;101044.59;;;15.44;55.51
69245;BME280;56357;52.304;4.870;2022-12-08T09:56:15;101051.31;;;15.48;55.28
69245;BME280;56357;52.304;4.870;2022-12-08T10:01:35;101071.66;;;15.44;55.34
69245;BME280;56357;52.304;4.870;2022-12-08T10:06:59;101051.75;;;15.40;55.19
69245;BME280;56357;52.304;4.870;2022-12-08T10:12:09;101034.25;;;15.45;55.07
69245;BME280;56357;52.304;4.870;2022-12-08T10:14:52;101034.84;;;15.47;55.00
69245;BME280;56357;52.304;4.870;2022-12-08T10:17:25;101028.16;;;15.48;54.95
69245;BME280;56357;52.304;4.870;2022-12-08T10:20:19;101023.75;;;15.52;54.90
69245;BME280;56357;52.304;4.870;2022-12-08T10:22:50;101018.16;;;15.52;54.87
69245;BME280;56357;52.304;4.870;2022-12-08T10:25:35;101010.78;;;15.89;54.10
69245;BME280;56357;52.304;4.870;2022-12-08T10:28:03;101013.28;;;16.12;53.03
69245;BME280;56357;52.304;4.870;2022-12-08T10:30:30;101011.16;;;16.24;53.26
69245;BME280;56357;52.304;4.870;2022-12-08T10:32:57;101012.53;;;16.48;52.46
69245;BME280;56357;52.304;4.870;2022-12-08T10:35:23;101008.19;;;16.63;52.26
69245;BME280;56357;52.304;4.870;2022-12-08T10:37:58;100997.59;;;16.70;51.76
69245;BME280;56357;52.304;4.870;2022-12-08T10:40:33;101000.22;;;16.81;51.75
69245;BME280;56357;52.304;4.870;2022-12-08T10:43:00;100989.06;;;16.86;51.46
69245;BME280;56357;52.304;4.870;2022-12-08T10:48:05;100979.84;;;16.86;51.34
69245;BME280;56357;52.304;4.870;2022-12-08T10:50:41;100977.06;;;16.91;51.19
69245;BME280;56357;52.304;4.870;2022-12-08T10:55:46;100969.53;;;16.96;51.07
69245;BME280;56357;52.304;4.870;2022-12-08T11:03:30;100971.41;;;16.81;51.16
69245;BME280;56357;52.304;4.870;2022-12-08T11:05:59;100975.50;;;16.36;52.32
69245;BME280;56357;52.304;4.870;2022-12-08T11:08:27;100972.56;;;16.21;52.58
69245;BME280;56357;52.304;4.870;2022-12-08T11:10:54;100960.03;;;15.97;53.00
69245;BME280;56357;52.304;4.870;2022-12-08T11:13:25;100967.94;;;16.05;53.19
69245;BME280;56357;52.304;4.870;2022-12-08T11:15:54;100959.50;;;16.00;53.39
69245;BME280;56357;52.304;4.870;2022-12-08T11:21:08;100955.56;;;15.96;52.96
69245;BME280;56357;52.304;4.870;2022-12-08T11:23:36;100951.13;;;16.00;52.71
69245;BME280;56357;52.304;4.870;2022-12-08T11:26:25;100945.22;;;15.97;53.09
69245;BME280;56357;52.304;4.870;2022-12-08T11:28:54;100947.72;;;15.93;53.05
69245;BME280;56357;52.304;4.870;2022-12-08T11:31:30;100947.72;;;15.93;53.00
69245;BME280;56357;52.304;4.870;2022-12-08T11:33:58;100943.25;;;15.92;52.88
69245;BME280;56357;52.304;4.870;2022-12-08T11:36:27;100946.81;;;15.88;52.91
69245;BME280;56357;52.304;4.870;2022-12-08T11:38:58;100948.44;;;15.84;52.84
69245;BME280;56357;52.304;4.870;2022-12-08T11:41:32;100947.59;;;15.83;52.84
69245;BME280;56357;52.304;4.870;2022-12-08T11:44:05;100942.56;;;15.80;52.88
69245;BME280;56357;52.304;4.870;2022-12-08T11:46:45;100947.56;;;15.78;52.89
69245;BME280;56357;52.304;4.870;2022-12-08T11:49:14;100944.72;;;15.73;52.97
69245;BME280;56357;52.304;4.870;2022-12-08T11:51:52;100940.53;;;15.76;53.07
69245;BME280;56357;52.304;4.870;2022-12-08T11:54:26;100939.19;;;15.78;53.00
69245;BME280;56357;52.304;4.870;2022-12-08T11:57:00;100937.75;;;15.76;52.99
69245;BME280;56357;52.304;4.870;2022-12-08T12:02:00;100931.81;;;15.67;53.41
69245;BME280;56357;52.304;4.870;2022-12-08T12:04:31;100926.22;;;15.67;53.01
69245;BME280;56357;52.304;4.870;2022-12-08T12:12:50;100924.00;;;15.69;53.30
69245;BME280;56357;52.304;4.870;2022-12-08T12:15:35;100918.94;;;15.66;53.37
69245;BME280;56357;52.304;4.870;2022-12-08T12:18:11;100929.53;;;15.64;53.49
69245;BME280;56357;52.304;4.870;2022-12-08T12:23:39;100919.97;;;15.60;53.44
69245;BME280;56357;52.304;4.870;2022-12-08T12:26:15;100917.47;;;15.58;53.61
69245;BME280;56357;52.304;4.870;2022-12-08T12:28:51;100919.97;;;15.60;53.49
69245;BME280;56357;52.304;4.870;2022-12-08T12:31:22;100918.31;;;15.59;53.37
69245;BME280;56357;52.304;4.870;2022-12-08T12:33:53;100912.16;;;15.57;53.37
69245;BME280;56357;52.304;4.870;2022-12-08T12:36:20;100903.50;;;15.58;53.20
69245;BME280;56357;52.304;4.870;2022-12-08T12:38:50;100904.94;;;15.61;53.18
69245;BME280;56357;52.304;4.870;2022-12-08T12:41:41;100907.78;;;15.66;53.21
69245;BME280;56357;52.304;4.870;2022-12-08T12:57:25;100911.72;;;15.70;53.01
69245;BME280;56357;52.304;4.870;2022-12-08T13:05:06;100906.84;;;15.55;53.27
69245;BME280;56357;52.304;4.870;2022-12-08T13:07:41;100907.34;;;15.52;53.17
69245;BME280;56357;52.304;4.870;2022-12-08T13:12:42;100910.03;;;15.42;53.21
69245;BME280;56357;52.304;4.870;2022-12-08T13:15:19;100920.34;;;15.42;53.12
69245;BME280;56357;52.304;4.870;2022-12-08T13:17:47;100915.81;;;15.41;53.38
69245;BME280;56357;52.304;4.870;2022-12-08T13:20:22;100919.66;;;15.35;53.54
69245;BME280;56357;52.304;4.870;2022-12-08T13:37:00;100901.78;;;15.31;53.25
69245;BME280;56357;52.304;4.870;2022-12-08T13:45:13;100892.47;;;15.25;53.29
69245;BME280;56357;52.304;4.870;2022-12-08T13:47:50;100890.81;;;15.24;53.76
69245;BME280;56357;52.304;4.870;2022-12-08T13:50:25;100883.78;;;15.22;53.55
69245;BME280;56357;52.304;4.870;2022-12-08T13:53:00;100895.81;;;15.22;53.37
69245;BME280;56357;52.304;4.870;2022-12-08T13:55:33;100888.22;;;15.18;53.54
69245;BME280;56357;52.304;4.870;2022-12-08T13:58:00;100888.75;;;15.15;53.47
69245;BME280;56357;52.304;4.870;2022-12-08T14:00:27;100887.91;;;15.14;53.37
69245;BME280;56357;52.304;4.870;2022-12-08T14:03:00;100885.38;;;15.13;53.52
69245;BME280;56357;52.304;4.870;2022-12-08T14:05:38;100888.16;;;15.13;53.40
69245;BME280;56357;52.304;4.870;2022-12-08T14:08:14;100889.78;;;15.09;53.59
69245;BME280;56357;52.304;4.870;2022-12-08T14:10:44;100899.25;;;15.08;53.37
69245;BME280;56357;52.304;4.870;2022-12-08T14:13:13;100903.41;;;15.05;53.44
69245;BME280;56357;52.304;4.870;2022-12-08T14:15:40;100907.22;;;14.99;53.61
69245;BME280;56357;52.304;4.870;2022-12-08T14:18:23;100911.44;;;15.02;53.63
69245;BME280;56357;52.304;4.870;2022-12-08T14:21:03;100904.16;;;15.01;53.99
69245;BME280;56357;52.304;4.870;2022-12-08T14:23:33;100905.78;;;14.97;54.41
69245;BME280;56357;52.304;4.870;2022-12-08T14:26:00;100901.06;;;14.97;54.27
69245;BME280;56357;52.304;4.870;2022-12-08T14:28:30;100895.88;;;15.06;53.99
69245;BME280;56357;52.304;4.870;2022-12-08T14:30:57;100895.34;;;14.87;54.50
69245;BME280;56357;52.304;4.870;2022-12-08T14:33:23;100902.69;;;14.93;54.19
69245;BME280;56357;52.304;4.870;2022-12-08T14:35:53;100901.84;;;15.14;53.82
69245;BME280;56357;52.304;4.870;2022-12-08T14:38:21;100895.84;;;15.27;53.24
69245;BME280;56357;52.304;4.870;2022-12-08T14:41:06;100892.75;;;15.45;52.91
69245;BME280;56357;52.304;4.870;2022-12-08T14:43:33;100899.88;;;15.58;52.49
69245;BME280;56357;52.304;4.870;2022-12-08T14:46:17;100894.50;;;15.78;52.19
69245;BME280;56357;52.304;4.870;2022-12-08T14:48:44;100878.91;;;15.82;51.97
69245;BME280;56357;52.304;4.870;2022-12-08T14:53:42;100871.88;;;15.80;51.67
69245;BME280;56357;52.304;4.870;2022-12-08T14:58:43;100877.72;;;15.25;53.22
69245;BME280;56357;52.304;4.870;2022-12-08T15:01:15;100877.63;;;15.20;52.96